createdAt,value
2018-12-25T00:00:25.839Z,1.82
2018-12-25T00:02:55.592Z,1.78
2018-12-25T00:05:25.174Z,1.81
2018-12-25T00:25:16.875Z,1.70
2018-12-25T00:45:08.128Z,1.54
2018-12-25T00:47:37.881Z,1.60
2018-12-25T00:50:07.422Z,1.44
2018-12-25T00:52:37.031Z,1.44
2018-12-25T00:55:06.959Z,1.48
2018-12-25T01:14:57.857Z,1.48
2018-12-25T01:34:49.463Z,1.19
2018-12-25T01:37:18.869Z,1.21
2018-12-25T01:39:48.519Z,1.20
2018-12-25T01:42:18.047Z,1.19
2018-12-25T01:44:47.506Z,0.98
2018-12-25T01:47:17.152Z,0.97
2018-12-25T01:49:46.871Z,0.87
2018-12-25T01:52:16.427Z,0.92
2018-12-25T01:54:45.931Z,0.84
2018-12-25T01:57:15.649Z,0.79
2018-12-25T02:17:06.786Z,0.63
2018-12-25T02:19:40.159Z,0.71
2018-12-25T02:22:06.275Z,0.66
2018-12-25T02:24:36.032Z,0.67
2018-12-25T02:27:05.875Z,0.53
2018-12-25T02:29:35.558Z,0.54
2018-12-25T02:32:04.963Z,0.61
2018-12-25T02:34:34.751Z,0.54
2018-12-25T02:37:04.503Z,0.44
2018-12-25T02:39:34.107Z,0.52
2018-12-25T02:42:03.961Z,0.51
2018-12-25T02:44:33.507Z,0.42
2018-12-25T02:47:03.332Z,0.34
2018-12-25T02:49:32.834Z,0.25
2018-12-25T02:52:02.548Z,0.35
2018-12-25T02:54:32.030Z,0.28
2018-12-25T02:57:01.940Z,0.30
2018-12-25T02:59:31.424Z,0.32
2018-12-25T03:02:01.074Z,0.28
2018-12-25T03:04:31.135Z,0.21
2018-12-25T03:07:01.075Z,0.13
2018-12-25T03:09:30.607Z,0.15
2018-12-25T03:12:00.763Z,0.12
2018-12-25T03:14:30.243Z,0.08
2018-12-25T03:16:59.944Z,0.09
2018-12-25T03:36:52.282Z,-0.23
2018-12-25T03:39:21.772Z,-0.25
2018-12-25T03:59:14.764Z,-0.41
2018-12-25T04:01:44.333Z,-0.35
2018-12-25T04:04:13.901Z,-0.38
2018-12-25T04:06:43.748Z,-0.37
2018-12-25T04:09:13.191Z,-0.39
2018-12-25T04:11:42.925Z,-0.43
2018-12-25T04:14:12.798Z,-0.39
2018-12-25T04:16:42.467Z,-0.47
2018-12-25T04:19:12.157Z,-0.44
2018-12-25T04:21:41.794Z,-0.35
2018-12-25T04:24:11.486Z,-0.36
2018-12-25T04:26:41.733Z,-0.32
2018-12-25T04:29:11.420Z,-0.36
2018-12-25T04:31:41.026Z,-0.33
2018-12-25T04:34:10.970Z,-0.37
2018-12-25T04:36:40.674Z,-0.40
2018-12-25T04:56:32.773Z,-0.49
2018-12-25T04:59:02.112Z,-0.57
2018-12-25T05:01:31.815Z,-0.60
2018-12-25T05:04:01.358Z,-0.54
2018-12-25T05:23:52.347Z,-0.71
2018-12-25T05:26:21.683Z,-0.70
2018-12-25T05:28:51.081Z,-0.68
2018-12-25T05:31:20.457Z,-0.57
2018-12-25T05:33:50.088Z,-0.55
2018-12-25T05:36:19.528Z,-0.55
2018-12-25T05:38:49.002Z,-0.59
2018-12-25T06:18:56.369Z,-0.71
2018-12-25T06:21:25.883Z,-0.74
2018-12-25T06:23:55.442Z,-0.84
2018-12-25T06:26:25.110Z,-0.74
2018-12-25T06:28:54.791Z,-0.78
2018-12-25T06:31:24.258Z,-0.80
2018-12-25T06:51:15.639Z,-0.82
2018-12-25T06:53:45.302Z,-0.70
2018-12-25T06:56:14.964Z,-0.66
2018-12-25T06:58:44.754Z,-0.66
2018-12-25T07:01:14.100Z,-0.78
2018-12-25T07:03:43.523Z,-0.74
2018-12-25T07:06:13.503Z,-0.62
2018-12-25T07:26:05.089Z,-0.56
2018-12-25T07:28:35.034Z,-0.62
2018-12-25T07:31:04.700Z,-0.59
2018-12-25T07:33:34.479Z,-0.62
2018-12-25T07:53:25.703Z,-0.66
2018-12-25T07:55:55.386Z,-0.69
2018-12-25T07:58:24.995Z,-0.77
2018-12-25T08:00:55.043Z,-0.69
2018-12-25T08:03:24.406Z,-0.77
2018-12-25T08:05:54.105Z,-0.60
2018-12-25T08:08:23.900Z,-0.59
2018-12-25T08:10:53.538Z,-0.63
2018-12-25T08:13:22.830Z,-0.60
2018-12-25T08:33:14.087Z,-0.68
2018-12-25T08:35:43.775Z,-0.82
2018-12-25T08:38:13.289Z,-0.81
2018-12-25T08:40:43.297Z,-0.77
2018-12-25T08:43:12.911Z,-0.70
2018-12-25T08:45:42.623Z,-0.75
2018-12-25T09:05:34.733Z,-0.43
2018-12-25T09:08:04.513Z,-0.68
2018-12-25T09:10:34.218Z,-0.77
2018-12-25T09:13:04.832Z,-0.85
2018-12-25T09:15:33.627Z,-0.70
2018-12-25T09:18:03.257Z,-0.78
2018-12-25T09:20:32.874Z,-0.74
2018-12-25T09:23:02.353Z,-0.76
2018-12-25T09:42:55.080Z,-0.64
2018-12-25T09:45:24.539Z,-0.58
2018-12-25T09:47:54.279Z,-0.75
2018-12-25T09:50:24.071Z,-0.71
2018-12-25T09:52:53.342Z,-0.61
2018-12-25T09:55:22.813Z,-0.63
2018-12-25T09:57:53.165Z,-0.78
2018-12-25T10:17:57.072Z,-0.71
2018-12-25T10:20:28.237Z,-0.80
2018-12-25T10:22:56.339Z,-0.75
2018-12-25T10:25:25.811Z,0.06
2018-12-25T10:27:55.179Z,0.13
2018-12-25T10:30:24.735Z,-0.09
2018-12-25T10:32:54.478Z,-0.33
2018-12-25T10:35:23.963Z,-0.41
2018-12-25T10:37:53.667Z,-0.32
2018-12-25T10:40:23.075Z,-0.36
2018-12-25T10:42:53.007Z,-0.56
2018-12-25T11:02:44.336Z,-0.58
2018-12-25T11:05:14.154Z,-0.59
2018-12-25T11:07:43.739Z,-0.65
2018-12-25T11:10:13.363Z,-0.63
2018-12-25T11:12:43.272Z,-0.53
2018-12-25T11:15:13.020Z,-0.14
2018-12-25T11:17:42.506Z,3.62
2018-12-25T11:20:12.727Z,4.57
2018-12-25T11:22:42.039Z,2.66
2018-12-25T11:25:11.555Z,2.47
2018-12-25T11:27:41.348Z,2.26
2018-12-25T11:30:10.841Z,2.81
2018-12-25T11:50:02.868Z,8.67
2018-12-25T11:52:32.552Z,5.75
2018-12-25T11:55:01.980Z,3.43
2018-12-25T11:57:31.741Z,2.33
2018-12-25T12:00:01.198Z,2.00
2018-12-25T12:02:30.646Z,4.18
2018-12-25T12:05:00.518Z,4.16
2018-12-25T12:24:53.424Z,4.45
2018-12-25T12:27:23.048Z,5.51
2018-12-25T12:29:53.176Z,4.13
2018-12-25T12:32:22.627Z,6.90
2018-12-25T12:34:52.738Z,10.71
2018-12-25T12:37:22.250Z,10.07
2018-12-25T12:39:53.800Z,8.21
2018-12-25T12:42:23.209Z,4.95
2018-12-25T13:02:15.571Z,7.15
2018-12-25T13:22:07.717Z,5.77
2018-12-25T13:24:37.486Z,8.85
2018-12-25T13:44:29.615Z,0.99
2018-12-25T13:46:59.172Z,0.58
2018-12-25T13:49:28.858Z,0.38
2018-12-25T14:20:55.022Z,-1.02
2018-12-25T14:23:24.698Z,-1.02
2018-12-25T14:25:54.467Z,-1.00
2018-12-25T14:28:24.625Z,-1.06
2018-12-25T14:30:54.300Z,-0.99
2018-12-25T14:50:46.215Z,-1.14
2018-12-25T14:53:19.820Z,-1.19
2018-12-25T14:55:45.901Z,-1.26
2018-12-25T14:58:15.681Z,-1.27
2018-12-25T15:00:45.403Z,-1.28
2018-12-25T15:20:37.825Z,-1.45
2018-12-25T15:23:07.379Z,-1.40
2018-12-25T15:43:00.207Z,-1.64
2018-12-25T15:45:29.960Z,-2.06
2018-12-25T15:56:40.311Z,-1.63
2018-12-25T15:59:10.058Z,-1.57
2018-12-25T16:01:39.404Z,-1.59
2018-12-25T16:04:09.015Z,-1.53
2018-12-25T16:06:38.757Z,-1.55
2018-12-25T16:09:08.197Z,-1.74
2018-12-25T16:11:37.601Z,-1.74
2018-12-25T16:14:07.369Z,-1.75
2018-12-25T16:16:36.756Z,-1.75
2018-12-25T16:19:06.321Z,-1.76
2018-12-25T16:21:35.672Z,-1.75
2018-12-25T16:24:05.377Z,-1.77
2018-12-25T16:26:34.777Z,-1.88
2018-12-25T16:29:04.700Z,-1.88
2018-12-25T16:31:34.352Z,-1.78
2018-12-25T16:34:04.143Z,-1.74
2018-12-25T16:36:34.028Z,-1.75
2018-12-25T16:39:03.674Z,-1.73
2018-12-25T16:41:33.175Z,-1.72
2018-12-25T16:44:03.019Z,-1.72
2018-12-25T16:46:32.738Z,-1.79
2018-12-25T16:49:02.341Z,-1.87
2018-12-25T16:51:31.969Z,-1.88
2018-12-25T16:54:01.665Z,-1.98
2018-12-25T16:56:31.324Z,-2.06
2018-12-25T16:59:01.402Z,-1.81
2018-12-25T17:01:30.929Z,-1.90
2018-12-25T17:04:00.415Z,-1.92
2018-12-25T17:06:30.329Z,-1.91
2018-12-25T17:08:59.821Z,-1.93
2018-12-25T17:11:29.452Z,-1.95
2018-12-25T17:13:59.299Z,-2.10
2018-12-25T17:16:28.914Z,-2.11
2018-12-25T17:18:58.412Z,-2.02
2018-12-25T17:21:28.316Z,-1.99
2018-12-25T17:24:02.235Z,-1.99
2018-12-25T17:26:27.631Z,-1.96
2018-12-25T17:28:57.277Z,-1.87
2018-12-25T17:31:26.823Z,-1.89
2018-12-25T17:33:56.328Z,-1.93
2018-12-25T17:36:25.978Z,-1.87
2018-12-25T17:38:55.540Z,-1.85
2018-12-25T17:41:25.885Z,-1.93
2018-12-25T17:43:55.882Z,-1.86
2018-12-25T17:46:25.852Z,-1.94
2018-12-25T17:48:55.359Z,-1.94
2018-12-25T17:51:24.952Z,-2.10
2018-12-25T17:53:54.512Z,-2.07
2018-12-25T17:56:24.022Z,-2.01
2018-12-25T17:58:53.912Z,-2.08
2018-12-25T18:01:23.419Z,-1.96
2018-12-25T18:03:52.944Z,-1.96
2018-12-25T18:06:22.798Z,-1.98
2018-12-25T18:08:52.475Z,-2.08
2018-12-25T18:11:21.796Z,-1.70
2018-12-25T18:13:51.641Z,-1.81
2018-12-25T18:16:20.976Z,-1.89
2018-12-25T18:18:50.346Z,-2.07
2018-12-25T18:21:19.823Z,-2.10
2018-12-25T18:23:49.523Z,-2.22
2018-12-25T18:26:19.164Z,-2.09
2018-12-25T18:28:49.033Z,-2.14
2018-12-25T18:31:18.768Z,-2.02
2018-12-25T18:33:48.252Z,-2.15
2018-12-25T18:36:18.111Z,-2.25
2018-12-25T18:38:47.727Z,-2.27
2018-12-25T18:41:17.382Z,-2.25
2018-12-25T18:43:47.360Z,-2.33
2018-12-25T18:46:16.904Z,-2.20
2018-12-25T18:48:46.395Z,-2.32
2018-12-25T18:51:16.162Z,-2.32
2018-12-25T18:53:45.611Z,-2.19
2018-12-25T18:56:15.114Z,-2.28
2018-12-25T18:58:45.145Z,-2.30
2018-12-25T19:01:14.902Z,-2.36
2018-12-25T19:03:44.460Z,-2.41
2018-12-25T19:06:14.232Z,-2.42
2018-12-25T19:08:43.894Z,-2.38
2018-12-25T19:11:14.243Z,-2.40
2018-12-25T19:13:43.722Z,-2.32
2018-12-25T19:16:13.231Z,-2.31
2018-12-25T19:18:43.132Z,-2.45
2018-12-25T19:21:12.892Z,-2.46
2018-12-25T19:23:49.953Z,-2.49
2018-12-25T19:26:19.297Z,-2.59
2018-12-25T19:28:48.957Z,-2.56
2018-12-25T19:31:18.585Z,-2.48
2018-12-25T19:33:48.480Z,-2.45
2018-12-25T19:36:18.037Z,-2.45
2018-12-25T19:38:47.605Z,-2.58
2018-12-25T19:41:17.231Z,-2.54
2018-12-25T19:43:46.909Z,-2.52
2018-12-25T19:46:16.549Z,-2.46
2018-12-25T19:48:46.589Z,-2.47
2018-12-25T19:51:16.005Z,-2.45
2018-12-25T19:53:45.775Z,-2.41
2018-12-25T19:56:16.556Z,-2.44
2018-12-25T19:58:46.104Z,-2.40
2018-12-25T20:01:15.825Z,-2.39
2018-12-25T20:03:53.499Z,-2.49
2018-12-25T20:08:40.398Z,-2.52
2018-12-25T20:12:35.989Z,-2.49
2018-12-25T20:18:21.998Z,-2.58
2018-12-25T20:21:08.197Z,-2.59
2018-12-25T20:25:03.305Z,-2.46
2018-12-25T20:27:59.771Z,-2.56
2018-12-25T20:30:40.331Z,-2.45
2018-12-25T20:33:20.333Z,-2.54
2018-12-25T20:36:07.637Z,-2.43
2018-12-25T20:38:48.331Z,-2.38
2018-12-25T20:41:47.839Z,-2.33
2018-12-25T20:44:31.229Z,-2.40
2018-12-25T20:47:21.307Z,-2.57
2018-12-25T20:50:01.246Z,-2.56
2018-12-25T20:53:48.018Z,-2.63
2018-12-25T20:58:41.032Z,-2.55
2018-12-25T21:02:21.238Z,-2.37
2018-12-25T21:05:02.316Z,-2.47
2018-12-25T21:08:33.218Z,-2.72
2018-12-25T21:13:14.982Z,-2.57
2018-12-25T21:16:27.372Z,-2.57
2018-12-25T21:19:28.203Z,-2.65
2018-12-25T21:22:07.243Z,-2.56
2018-12-25T21:24:47.796Z,-2.60
2018-12-25T21:27:28.549Z,-2.70
2018-12-25T21:29:58.511Z,-2.63
2018-12-25T21:32:28.327Z,-2.56
2018-12-25T21:35:04.710Z,-2.42
2018-12-25T21:37:34.608Z,-2.36
2018-12-25T21:40:04.936Z,-2.47
2018-12-25T21:42:34.628Z,-2.63
2018-12-25T21:45:04.740Z,-2.63
2018-12-25T21:47:34.444Z,-2.60
2018-12-25T21:50:04.566Z,-2.69
2018-12-25T21:52:34.166Z,-2.78
2018-12-25T21:55:04.452Z,-2.69
2018-12-25T21:57:34.384Z,-2.69
2018-12-25T22:00:03.945Z,-2.75
2018-12-25T22:02:33.714Z,-2.80
2018-12-25T22:05:03.473Z,-2.86
2018-12-25T22:07:33.139Z,-2.88
2018-12-25T22:10:02.727Z,-2.86
2018-12-25T22:12:32.445Z,-2.76
2018-12-25T22:15:02.151Z,-2.70
2018-12-25T22:17:31.631Z,-2.66
2018-12-25T22:20:02.816Z,-2.54
2018-12-25T22:22:32.998Z,-2.68
2018-12-25T22:25:02.475Z,-2.71
2018-12-25T22:27:32.447Z,-2.72
2018-12-25T22:30:02.127Z,-2.66
2018-12-25T22:32:31.648Z,-2.66
2018-12-25T22:35:01.474Z,-2.60
2018-12-25T22:37:30.950Z,-2.67
2018-12-25T22:40:00.614Z,-2.78
2018-12-25T22:42:30.399Z,-2.65
2018-12-25T22:45:00.185Z,-2.62
2018-12-25T22:47:30.449Z,-2.69
2018-12-25T22:50:00.469Z,-2.77
2018-12-25T22:52:30.179Z,-2.64
2018-12-25T22:54:59.855Z,-2.63
2018-12-25T22:57:29.583Z,-2.62
2018-12-25T22:59:59.170Z,-2.73
2018-12-25T23:02:28.896Z,-2.75
2018-12-25T23:04:58.852Z,-2.76
2018-12-25T23:07:28.534Z,-2.75
2018-12-25T23:09:58.252Z,-2.68
2018-12-25T23:12:28.191Z,-2.73
2018-12-25T23:14:57.948Z,-2.67
2018-12-25T23:17:27.435Z,-2.77
2018-12-25T23:19:57.440Z,-2.81
2018-12-25T23:22:27.016Z,-2.76
2018-12-25T23:24:56.483Z,-2.83
2018-12-25T23:27:26.396Z,-2.82
2018-12-25T23:29:55.902Z,-2.81
2018-12-25T23:32:25.671Z,-2.78
2018-12-25T23:34:55.250Z,-2.88
2018-12-25T23:37:24.624Z,-2.76
2018-12-25T23:39:54.343Z,-2.74
2018-12-25T23:42:24.076Z,-2.86
2018-12-25T23:44:53.684Z,-2.91
2018-12-25T23:47:23.047Z,-2.90
2018-12-25T23:49:53.114Z,-2.81
2018-12-25T23:52:22.489Z,-2.80
2018-12-25T23:54:52.011Z,-2.83
2018-12-25T23:57:21.641Z,-2.85
2018-12-25T23:59:52.676Z,-2.83
